createdAt,value
2017-12-28T00:00:23.392Z,29.97
2017-12-28T00:02:51.036Z,31.27
2017-12-28T00:05:19.555Z,31.63
2017-12-28T00:07:47.993Z,19.57
2017-12-28T00:10:16.450Z,27.30
2017-12-28T00:12:44.182Z,28.10
2017-12-28T00:15:12.618Z,28.17
2017-12-28T00:17:40.283Z,27.27
2017-12-28T00:20:07.954Z,28.13
2017-12-28T00:22:35.929Z,27.90
2017-12-28T00:25:03.777Z,25.83
2017-12-28T00:27:31.478Z,25.07
2017-12-28T00:29:59.202Z,26.93
2017-12-28T00:32:26.881Z,28.63
2017-12-28T00:34:54.538Z,28.80
2017-12-28T00:37:22.203Z,26.77
2017-12-28T00:39:49.947Z,27.23
2017-12-28T00:42:18.581Z,24.97
2017-12-28T00:44:46.200Z,26.40
2017-12-28T00:47:13.841Z,23.60
2017-12-28T00:49:41.534Z,28.17
2017-12-28T00:52:09.178Z,26.17
2017-12-28T00:54:36.859Z,27.90
2017-12-28T00:57:04.526Z,27.47
2017-12-28T00:59:32.943Z,27.60
2017-12-28T01:02:00.584Z,23.70
2017-12-28T01:04:28.270Z,25.00
2017-12-28T01:06:55.898Z,26.73
2017-12-28T01:09:23.521Z,21.70
2017-12-28T01:11:51.252Z,22.10
2017-12-28T01:14:18.885Z,22.67
2017-12-28T01:16:47.306Z,16.70
2017-12-28T01:19:14.993Z,19.00
2017-12-28T01:21:42.625Z,18.80
2017-12-28T01:24:10.279Z,18.03
2017-12-28T01:26:37.985Z,18.23
2017-12-28T01:29:05.648Z,18.30
2017-12-28T01:31:33.301Z,17.47
2017-12-28T01:34:00.992Z,19.07
2017-12-28T01:36:29.444Z,19.40
2017-12-28T01:38:57.103Z,20.80
2017-12-28T01:41:24.769Z,18.73
2017-12-28T01:43:52.460Z,17.07
2017-12-28T01:46:20.091Z,17.77
2017-12-28T01:48:47.767Z,18.87
2017-12-28T01:51:16.262Z,17.40
2017-12-28T01:53:44.945Z,16.93
2017-12-28T01:56:13.382Z,18.03
2017-12-28T01:58:41.060Z,16.83
2017-12-28T02:01:08.697Z,18.00
2017-12-28T02:03:36.376Z,18.43
2017-12-28T02:06:04.000Z,17.77
2017-12-28T02:08:31.633Z,14.60
2017-12-28T02:11:00.055Z,16.47
2017-12-28T02:13:27.694Z,16.27
2017-12-28T02:15:55.317Z,16.17
2017-12-28T02:18:22.990Z,17.80
2017-12-28T02:20:50.643Z,15.90
2017-12-28T02:23:18.267Z,16.03
2017-12-28T02:25:45.978Z,17.37
2017-12-28T02:28:14.416Z,15.13
2017-12-28T02:30:42.089Z,17.13
2017-12-28T02:33:09.759Z,15.53
2017-12-28T02:35:37.387Z,16.90
2017-12-28T02:38:05.080Z,18.70
2017-12-28T02:40:32.741Z,15.70
2017-12-28T02:43:00.426Z,14.40
2017-12-28T02:45:28.804Z,14.17
2017-12-28T02:47:57.266Z,15.83
2017-12-28T02:50:24.890Z,15.43
2017-12-28T02:52:52.518Z,15.03
2017-12-28T02:55:21.003Z,16.03
2017-12-28T02:57:48.626Z,15.77
2017-12-28T03:00:16.287Z,13.90
2017-12-28T03:02:43.954Z,14.03
2017-12-28T03:05:11.584Z,13.70
2017-12-28T03:07:39.227Z,12.33
2017-12-28T03:10:06.881Z,14.87
2017-12-28T03:12:34.502Z,15.00
2017-12-28T03:15:02.975Z,14.60
2017-12-28T03:17:30.628Z,14.10
2017-12-28T03:19:58.317Z,15.03
2017-12-28T03:22:26.722Z,13.73
2017-12-28T03:24:54.386Z,12.20
2017-12-28T03:27:22.027Z,12.83
2017-12-28T03:29:49.664Z,12.40
2017-12-28T03:32:17.312Z,12.67
2017-12-28T03:34:44.945Z,12.40
2017-12-28T03:37:12.590Z,13.60
2017-12-28T03:39:40.304Z,11.80
2017-12-28T03:42:07.929Z,12.47
2017-12-28T03:44:35.556Z,11.50
2017-12-28T03:47:03.226Z,11.80
2017-12-28T03:49:30.849Z,11.30
2017-12-28T03:51:58.477Z,10.90
2017-12-28T03:54:26.273Z,11.63
2017-12-28T03:56:54.147Z,11.60
2017-12-28T03:59:21.800Z,13.00
2017-12-28T04:01:49.469Z,10.90
2017-12-28T04:04:17.095Z,12.90
2017-12-28T04:06:44.718Z,12.77
2017-12-28T04:09:12.388Z,11.07
2017-12-28T04:11:40.048Z,9.60
2017-12-28T04:14:07.678Z,9.50
2017-12-28T04:16:36.173Z,9.83
2017-12-28T04:19:03.788Z,10.20
2017-12-28T04:21:31.394Z,9.87
2017-12-28T04:23:59.055Z,10.07
2017-12-28T04:26:27.510Z,8.93
2017-12-28T04:28:55.153Z,9.20
2017-12-28T04:31:22.849Z,9.77
2017-12-28T04:33:50.473Z,9.37
2017-12-28T04:36:18.116Z,9.30
2017-12-28T04:38:45.769Z,8.33
2017-12-28T04:41:13.399Z,8.60
2017-12-28T04:43:41.809Z,8.03
2017-12-28T04:46:09.518Z,8.33
2017-12-28T04:48:37.136Z,8.50
2017-12-28T04:51:04.760Z,9.27
2017-12-28T04:53:32.433Z,8.43
2017-12-28T04:56:00.057Z,7.70
2017-12-28T04:58:27.919Z,8.87
2017-12-28T05:00:55.610Z,9.07
2017-12-28T05:03:23.994Z,8.63
2017-12-28T05:05:51.629Z,7.83
2017-12-28T05:08:20.088Z,8.27
2017-12-28T05:10:47.711Z,7.80
2017-12-28T05:13:15.329Z,7.93
2017-12-28T05:15:43.018Z,7.30
2017-12-28T05:18:10.638Z,8.00
2017-12-28T05:20:38.320Z,7.63
2017-12-28T05:23:06.009Z,7.10
2017-12-28T05:25:33.632Z,8.27
2017-12-28T05:28:01.257Z,7.47
2017-12-28T05:30:28.921Z,7.63
2017-12-28T05:32:56.544Z,6.77
2017-12-28T05:35:24.948Z,7.80
2017-12-28T05:37:52.689Z,7.87
2017-12-28T05:40:20.313Z,8.60
2017-12-28T05:42:47.923Z,9.30
2017-12-28T05:45:15.575Z,7.70
2017-12-28T05:47:43.968Z,9.13
2017-12-28T05:50:11.604Z,6.57
2017-12-28T05:52:39.304Z,8.57
2017-12-28T05:55:06.941Z,12.87
2017-12-28T05:57:34.588Z,11.47
2017-12-28T06:00:03.353Z,8.47
2017-12-28T06:02:31.166Z,12.20
2017-12-28T06:04:58.848Z,6.93
2017-12-28T06:07:26.541Z,8.90
2017-12-28T06:09:54.199Z,9.40
2017-12-28T06:12:23.085Z,9.77
2017-12-28T06:14:51.627Z,7.50
2017-12-28T06:17:19.285Z,9.57
2017-12-28T06:19:47.152Z,8.50
2017-12-28T06:22:14.932Z,10.47
2017-12-28T06:24:42.592Z,9.70
2017-12-28T06:27:10.276Z,10.53
2017-12-28T06:29:37.973Z,8.73
2017-12-28T06:32:05.602Z,9.03
2017-12-28T06:34:33.251Z,8.90
2017-12-28T06:37:00.929Z,8.00
2017-12-28T06:39:28.581Z,8.80
2017-12-28T06:41:56.240Z,7.30
2017-12-28T06:44:23.918Z,9.10
2017-12-28T06:46:51.616Z,7.27
2017-12-28T06:49:19.264Z,7.53
2017-12-28T06:51:47.730Z,7.80
2017-12-28T06:54:15.377Z,8.00
2017-12-28T06:56:43.095Z,8.70
2017-12-28T06:59:10.786Z,9.40
2017-12-28T07:01:38.590Z,8.83
2017-12-28T07:04:06.975Z,6.60
2017-12-28T07:06:35.430Z,7.90
2017-12-28T07:09:03.072Z,8.07
2017-12-28T07:11:30.726Z,9.40
2017-12-28T07:13:58.414Z,9.60
2017-12-28T07:16:26.066Z,7.70
2017-12-28T07:18:53.847Z,8.50
2017-12-28T07:21:21.537Z,8.67
2017-12-28T07:23:49.238Z,8.87
2017-12-28T07:26:16.871Z,9.30
2017-12-28T07:28:44.768Z,7.27
2017-12-28T07:31:12.416Z,8.40
2017-12-28T07:33:40.050Z,9.80
2017-12-28T07:36:07.877Z,10.67
2017-12-28T07:38:35.509Z,10.57
2017-12-28T07:41:03.164Z,8.77
2017-12-28T07:43:30.972Z,10.93
2017-12-28T07:45:58.606Z,9.40
2017-12-28T07:48:26.264Z,8.40
2017-12-28T07:50:54.022Z,7.20
2017-12-28T07:53:22.455Z,10.73
2017-12-28T07:55:52.408Z,11.77
2017-12-28T07:58:20.453Z,8.73
2017-12-28T08:00:48.145Z,9.63
2017-12-28T08:03:15.814Z,11.07
2017-12-28T08:05:43.600Z,9.97
2017-12-28T08:08:11.272Z,7.80
2017-12-28T08:10:38.895Z,7.90
2017-12-28T08:13:06.716Z,10.97
2017-12-28T08:15:35.330Z,12.80
2017-12-28T08:18:02.966Z,8.50
2017-12-28T08:20:30.905Z,12.20
2017-12-28T08:22:58.653Z,8.87
2017-12-28T08:25:26.347Z,7.77
2017-12-28T08:27:54.781Z,13.27
2017-12-28T08:30:23.792Z,9.00
2017-12-28T08:32:51.440Z,8.70
2017-12-28T08:35:19.351Z,9.70
2017-12-28T08:37:47.757Z,14.30
2017-12-28T08:40:16.133Z,12.83
2017-12-28T08:42:43.881Z,11.70
2017-12-28T08:45:11.583Z,14.47
2017-12-28T08:47:39.237Z,14.53
2017-12-28T08:50:07.075Z,10.93
2017-12-28T08:52:34.763Z,17.50
2017-12-28T08:55:02.389Z,12.47
2017-12-28T08:57:30.161Z,15.33
2017-12-28T08:59:57.824Z,9.23
2017-12-28T09:02:27.516Z,12.77
2017-12-28T09:04:55.981Z,11.07
2017-12-28T09:07:23.624Z,12.03
2017-12-28T09:09:51.337Z,13.70
2017-12-28T09:12:19.018Z,13.43
2017-12-28T09:14:46.655Z,13.50
2017-12-28T09:17:14.300Z,13.50
2017-12-28T09:19:41.995Z,13.90
2017-12-28T09:22:09.641Z,14.77
2017-12-28T09:24:37.286Z,12.03
2017-12-28T09:27:05.017Z,11.90
2017-12-28T09:29:32.648Z,13.30
2017-12-28T09:32:00.289Z,11.03
2017-12-28T09:34:27.998Z,12.57
2017-12-28T09:36:55.644Z,9.97
2017-12-28T09:39:23.268Z,8.90
2017-12-28T09:41:52.098Z,8.27
2017-12-28T09:44:19.756Z,10.73
2017-12-28T09:46:47.420Z,9.10
2017-12-28T09:49:15.085Z,8.23
2017-12-28T09:51:42.718Z,8.83
2017-12-28T09:54:10.322Z,9.07
2017-12-28T09:56:37.988Z,10.80
2017-12-28T09:59:05.613Z,12.63
2017-12-28T10:01:33.247Z,10.10
2017-12-28T10:04:01.019Z,12.60
2017-12-28T10:06:28.714Z,11.63
2017-12-28T10:08:56.368Z,9.67
2017-12-28T10:11:24.059Z,10.93
2017-12-28T10:13:51.691Z,12.67
2017-12-28T10:16:19.310Z,13.93
2017-12-28T10:18:47.854Z,11.43
2017-12-28T10:21:15.494Z,23.13
2017-12-28T10:23:43.899Z,24.33
2017-12-28T10:26:11.668Z,26.37
2017-12-28T10:28:39.304Z,27.70
2017-12-28T10:31:06.941Z,29.83
2017-12-28T10:33:34.729Z,34.03
2017-12-28T10:36:02.405Z,25.07
2017-12-28T10:38:30.157Z,34.60
2017-12-28T10:40:57.906Z,28.03
2017-12-28T10:43:26.375Z,32.10
2017-12-28T10:45:54.033Z,32.50
2017-12-28T10:48:21.716Z,27.00
2017-12-28T10:50:49.396Z,21.77
2017-12-28T10:53:17.036Z,21.03
2017-12-28T10:55:44.731Z,19.83
2017-12-28T10:58:12.399Z,21.73
2017-12-28T11:00:40.114Z,23.70
2017-12-28T11:03:07.899Z,23.20
2017-12-28T11:05:35.523Z,24.23
2017-12-28T11:08:03.181Z,21.03
2017-12-28T11:10:30.860Z,23.50
2017-12-28T11:12:58.644Z,21.80
2017-12-28T11:15:26.304Z,22.50
2017-12-28T11:17:54.041Z,22.80
2017-12-28T11:20:21.704Z,27.70
2017-12-28T11:22:49.349Z,22.93
2017-12-28T11:25:17.137Z,26.87
2017-12-28T11:27:44.854Z,26.33
2017-12-28T11:30:13.329Z,22.80
2017-12-28T11:32:41.058Z,26.17
2017-12-28T11:35:08.772Z,28.53
2017-12-28T11:37:37.154Z,26.57
2017-12-28T11:40:04.878Z,25.30
2017-12-28T11:42:32.536Z,24.00
2017-12-28T11:45:00.180Z,27.00
2017-12-28T11:47:27.909Z,25.97
2017-12-28T11:49:55.539Z,51.27
2017-12-28T11:52:38.906Z,24.90
2017-12-28T11:55:06.585Z,30.73
2017-12-28T11:57:37.157Z,26.97
2017-12-28T12:00:10.656Z,29.63
2017-12-28T12:02:40.870Z,28.87
2017-12-28T12:05:08.606Z,29.27
2017-12-28T12:07:41.379Z,23.50
2017-12-28T12:10:11.999Z,33.57
2017-12-28T12:12:39.685Z,28.90
2017-12-28T12:15:07.426Z,36.50
2017-12-28T12:17:35.168Z,30.30
2017-12-28T12:20:02.794Z,26.03
2017-12-28T12:22:30.632Z,24.37
2017-12-28T12:24:58.276Z,26.60
2017-12-28T12:27:25.988Z,21.33
2017-12-28T12:29:53.773Z,17.73
2017-12-28T12:32:22.180Z,16.83
2017-12-28T12:34:49.866Z,16.57
2017-12-28T12:37:17.771Z,12.50
2017-12-28T12:39:46.415Z,19.80
2017-12-28T12:42:14.047Z,13.10
2017-12-28T12:44:41.857Z,12.23
2017-12-28T12:47:09.505Z,12.60
2017-12-28T12:49:37.146Z,12.07
2017-12-28T12:52:04.854Z,11.63
2017-12-28T12:54:33.288Z,11.00
2017-12-28T12:57:00.976Z,11.23
2017-12-28T12:59:28.698Z,10.57
2017-12-28T13:01:56.334Z,10.53
2017-12-28T13:04:24.761Z,9.60
2017-12-28T13:06:52.629Z,9.80
2017-12-28T13:09:20.288Z,10.57
2017-12-28T13:11:47.984Z,9.10
2017-12-28T13:14:15.745Z,10.20
2017-12-28T13:16:43.401Z,9.43
2017-12-28T13:19:11.122Z,10.20
2017-12-28T13:21:38.889Z,12.67
2017-12-28T13:24:07.408Z,10.40
2017-12-28T13:26:35.075Z,11.50
2017-12-28T13:29:03.068Z,11.40
2017-12-28T13:31:31.862Z,13.60
2017-12-28T13:33:59.506Z,14.90
2017-12-28T13:36:28.013Z,13.80
2017-12-28T13:38:55.661Z,15.77
2017-12-28T13:41:23.325Z,12.60
2017-12-28T13:43:51.063Z,11.70
2017-12-28T13:46:18.718Z,14.10
2017-12-28T13:48:46.407Z,15.53
2017-12-28T13:51:14.895Z,19.50
2017-12-28T13:53:42.600Z,16.53
2017-12-28T13:56:10.264Z,21.60
2017-12-28T13:58:38.003Z,13.90
2017-12-28T14:01:05.666Z,12.80
2017-12-28T14:03:33.340Z,12.10
2017-12-28T14:06:01.059Z,12.03
2017-12-28T14:08:29.473Z,12.00
2017-12-28T14:10:57.189Z,13.00
2017-12-28T14:13:24.993Z,10.60
2017-12-28T14:15:52.622Z,12.80
2017-12-28T14:18:21.038Z,13.53
2017-12-28T14:20:49.318Z,13.60
2017-12-28T14:23:16.960Z,13.60
2017-12-28T14:25:44.660Z,12.13
2017-12-28T14:28:12.387Z,12.70
2017-12-28T14:30:40.019Z,14.73
2017-12-28T14:33:08.417Z,15.67
2017-12-28T14:35:36.874Z,14.77
2017-12-28T14:38:05.310Z,13.00
2017-12-28T14:40:32.944Z,14.77
2017-12-28T14:43:00.756Z,14.00
2017-12-28T14:45:28.370Z,14.93
2017-12-28T14:47:56.067Z,13.80
2017-12-28T14:50:23.782Z,12.13
2017-12-28T14:52:52.173Z,15.40
2017-12-28T14:55:19.831Z,10.80
2017-12-28T14:57:47.754Z,13.97
2017-12-28T15:00:15.366Z,10.20
2017-12-28T15:02:43.044Z,10.40
2017-12-28T15:05:10.750Z,11.63
2017-12-28T15:07:38.361Z,10.57
2017-12-28T15:10:05.996Z,11.30
2017-12-28T15:12:34.462Z,12.10
2017-12-28T15:15:02.873Z,12.77
2017-12-28T15:17:30.498Z,9.70
2017-12-28T15:19:58.969Z,11.10
2017-12-28T15:22:26.629Z,13.30
2017-12-28T15:24:54.267Z,12.13
2017-12-28T15:27:21.968Z,10.90
2017-12-28T15:29:50.370Z,14.60
2017-12-28T15:32:17.985Z,13.73
2017-12-28T15:34:45.731Z,12.20
2017-12-28T15:37:13.378Z,10.73
2017-12-28T15:39:41.051Z,12.17
2017-12-28T15:42:08.810Z,12.73
2017-12-28T15:44:36.468Z,11.60
2017-12-28T15:47:04.118Z,12.30
2017-12-28T15:49:32.877Z,12.90
2017-12-28T15:52:01.319Z,12.53
2017-12-28T15:54:28.974Z,14.60
2017-12-28T15:56:56.699Z,12.67
2017-12-28T15:59:26.254Z,12.10
2017-12-28T16:01:56.126Z,11.47
2017-12-28T16:04:23.946Z,13.03
2017-12-28T16:06:52.929Z,11.60
2017-12-28T16:09:20.608Z,11.73
2017-12-28T16:11:48.238Z,11.97
2017-12-28T16:14:15.918Z,12.10
2017-12-28T16:16:43.689Z,13.27
2017-12-28T16:19:12.128Z,10.97
2017-12-28T16:21:39.770Z,11.13
2017-12-28T16:24:07.534Z,11.80
2017-12-28T16:26:35.163Z,11.53
2017-12-28T16:29:03.557Z,13.97
2017-12-28T16:31:31.295Z,13.47
2017-12-28T16:33:59.722Z,12.50
2017-12-28T16:36:27.343Z,24.83
2017-12-28T16:38:55.169Z,15.87
2017-12-28T16:41:22.904Z,17.43
2017-12-28T16:43:50.547Z,20.90
2017-12-28T16:46:18.996Z,13.90
2017-12-28T16:48:46.671Z,16.03
2017-12-28T16:51:15.094Z,13.53
2017-12-28T16:53:43.975Z,14.80
2017-12-28T16:56:12.022Z,13.33
2017-12-28T16:58:40.448Z,12.60
2017-12-28T17:01:08.259Z,15.03
2017-12-28T17:03:36.091Z,14.00
2017-12-28T17:06:03.824Z,14.70
2017-12-28T17:08:31.650Z,14.00
2017-12-28T17:11:00.073Z,15.30
2017-12-28T17:13:27.743Z,11.97
2017-12-28T17:15:55.520Z,10.10
2017-12-28T17:18:23.189Z,10.70
2017-12-28T17:20:51.192Z,12.50
2017-12-28T17:23:20.100Z,13.40
2017-12-28T17:25:47.784Z,9.90
2017-12-28T17:28:15.429Z,11.87
2017-12-28T17:30:43.231Z,14.17
2017-12-28T17:33:10.895Z,13.50
2017-12-28T17:35:38.519Z,14.00
2017-12-28T17:38:06.243Z,12.40
2017-12-28T17:40:34.692Z,14.40
2017-12-28T17:43:02.317Z,12.30
2017-12-28T17:45:30.275Z,15.17
2017-12-28T17:47:57.952Z,16.37
2017-12-28T17:50:25.598Z,13.90
2017-12-28T17:52:53.745Z,14.30
2017-12-28T17:55:22.171Z,13.50
2017-12-28T17:57:49.788Z,14.40
2017-12-28T18:00:18.318Z,14.10
2017-12-28T18:02:45.981Z,15.47
2017-12-28T18:05:13.630Z,14.20
2017-12-28T18:07:41.379Z,16.57
2017-12-28T18:10:09.243Z,14.40
2017-12-28T18:12:36.957Z,14.83
2017-12-28T18:15:06.204Z,11.57
2017-12-28T18:17:33.828Z,11.80
2017-12-28T18:20:03.967Z,11.80
2017-12-28T18:22:31.766Z,11.50
2017-12-28T18:24:59.389Z,12.50
2017-12-28T18:27:27.009Z,13.37
2017-12-28T18:29:54.753Z,12.07
2017-12-28T18:32:22.389Z,10.97
2017-12-28T18:34:50.770Z,11.50
2017-12-28T18:37:19.233Z,13.53
2017-12-28T18:39:46.908Z,8.27
2017-12-28T18:42:15.318Z,13.37
2017-12-28T18:44:43.368Z,10.60
2017-12-28T18:47:11.066Z,11.77
2017-12-28T18:49:39.002Z,11.53
2017-12-28T18:52:06.722Z,11.67
2017-12-28T18:54:34.900Z,11.20
2017-12-28T18:57:02.558Z,11.07
2017-12-28T18:59:30.859Z,11.40
2017-12-28T19:01:58.573Z,11.03
2017-12-28T19:04:26.239Z,11.60
2017-12-28T19:06:53.993Z,12.07
2017-12-28T19:09:21.651Z,10.73
2017-12-28T19:11:50.540Z,11.20
2017-12-28T19:14:19.215Z,10.17
2017-12-28T19:16:46.904Z,11.40
2017-12-28T19:19:14.624Z,10.93
2017-12-28T19:21:42.366Z,10.40
2017-12-28T19:24:10.812Z,10.93
2017-12-28T19:26:38.450Z,11.00
2017-12-28T19:29:06.182Z,13.30
2017-12-28T19:31:33.828Z,10.57
2017-12-28T19:34:02.273Z,11.30
2017-12-28T19:36:29.988Z,11.07
2017-12-28T19:38:57.698Z,12.07
2017-12-28T19:41:25.362Z,10.60
2017-12-28T19:43:53.113Z,13.10
2017-12-28T19:46:20.761Z,11.60
2017-12-28T19:48:48.470Z,10.63
2017-12-28T19:51:16.288Z,9.53
2017-12-28T19:53:43.955Z,14.17
2017-12-28T19:56:11.660Z,13.20
2017-12-28T19:58:39.531Z,11.70
2017-12-28T20:01:07.175Z,12.93
2017-12-28T20:03:34.877Z,14.37
2017-12-28T20:06:02.642Z,13.70
2017-12-28T20:08:30.381Z,11.73
2017-12-28T20:10:58.064Z,9.93
2017-12-28T20:13:25.817Z,9.90
2017-12-28T20:15:53.480Z,11.30
2017-12-28T20:18:21.153Z,8.90
2017-12-28T20:20:48.859Z,11.43
2017-12-28T20:23:16.643Z,11.00
2017-12-28T20:25:44.342Z,10.40
2017-12-28T20:28:12.815Z,10.93
2017-12-28T20:30:41.247Z,11.07
2017-12-28T20:33:08.967Z,16.23
2017-12-28T20:35:36.796Z,11.60
2017-12-28T20:38:04.439Z,14.57
2017-12-28T20:40:32.166Z,14.37
2017-12-28T20:42:59.911Z,11.20
2017-12-28T20:45:27.611Z,10.93
2017-12-28T20:47:55.260Z,10.03
2017-12-28T20:50:23.145Z,10.40
2017-12-28T20:52:50.820Z,9.00
2017-12-28T20:55:18.470Z,9.93
2017-12-28T20:57:46.281Z,10.90
2017-12-28T21:00:14.733Z,12.27
2017-12-28T21:02:42.387Z,16.10
2017-12-28T21:05:10.360Z,8.30
2017-12-28T21:07:38.055Z,10.17
2017-12-28T21:10:06.504Z,9.50
2017-12-28T21:12:34.355Z,9.37
2017-12-28T21:15:02.043Z,9.00
2017-12-28T21:17:29.714Z,9.00
2017-12-28T21:19:58.343Z,10.10
2017-12-28T21:22:26.005Z,8.40
2017-12-28T21:24:53.662Z,8.00
2017-12-28T21:27:21.506Z,8.40
2017-12-28T21:29:49.142Z,9.20
2017-12-28T21:32:16.806Z,8.33
2017-12-28T21:34:44.584Z,7.60
2017-12-28T21:37:13.031Z,7.53
2017-12-28T21:39:40.673Z,6.53
2017-12-28T21:42:08.447Z,6.83
2017-12-28T21:44:36.096Z,8.07
2017-12-28T21:47:03.746Z,6.93
2017-12-28T21:49:31.496Z,7.73
2017-12-28T21:51:59.167Z,8.47
2017-12-28T21:54:26.811Z,8.40
2017-12-28T21:56:54.657Z,7.60
2017-12-28T21:59:23.305Z,7.30
2017-12-28T22:01:51.037Z,8.43
2017-12-28T22:04:18.831Z,7.63
2017-12-28T22:06:46.494Z,9.67
2017-12-28T22:09:14.158Z,7.20
2017-12-28T22:11:42.037Z,7.57
2017-12-28T22:14:09.742Z,9.60
2017-12-28T22:16:37.426Z,7.47
2017-12-28T22:19:05.447Z,8.80
2017-12-28T22:21:33.076Z,9.83
2017-12-28T22:24:00.807Z,9.03
2017-12-28T22:26:28.698Z,9.10
2017-12-28T22:28:56.666Z,7.97
2017-12-28T22:31:24.305Z,9.37
2017-12-28T22:33:52.787Z,9.53
2017-12-28T22:36:20.439Z,8.10
2017-12-28T22:38:48.085Z,8.07
2017-12-28T22:41:16.589Z,8.20
2017-12-28T22:43:44.224Z,7.70
2017-12-28T22:46:11.948Z,8.50
2017-12-28T22:48:39.638Z,8.47
2017-12-28T22:51:11.936Z,13.37
2017-12-28T22:53:39.671Z,15.00
2017-12-28T22:56:07.340Z,12.07
2017-12-28T22:58:35.754Z,17.50
2017-12-28T23:01:03.453Z,11.67
2017-12-28T23:03:31.661Z,12.87
2017-12-28T23:06:00.110Z,12.37
2017-12-28T23:08:27.827Z,16.30
2017-12-28T23:10:55.480Z,20.10
2017-12-28T23:13:23.144Z,23.20
2017-12-28T23:15:50.963Z,11.43
2017-12-28T23:18:18.609Z,8.97
2017-12-28T23:20:46.287Z,6.70
2017-12-28T23:23:14.061Z,9.10
2017-12-28T23:25:41.737Z,7.50
2017-12-28T23:28:10.325Z,9.30
2017-12-28T23:30:38.058Z,6.80
2017-12-28T23:33:05.722Z,6.60
2017-12-28T23:35:33.408Z,5.83
2017-12-28T23:38:01.132Z,6.07
2017-12-28T23:40:29.007Z,5.80
2017-12-28T23:42:56.665Z,6.60
2017-12-28T23:45:25.225Z,7.80
2017-12-28T23:47:52.900Z,10.57
2017-12-28T23:50:20.600Z,7.40
2017-12-28T23:52:48.386Z,6.53
2017-12-28T23:55:16.063Z,6.23
2017-12-28T23:57:43.687Z,9.60
